Time;durP1;ratioP1;P1;durP2;ratioP2;P2;SDS_P1;SDS_P2;PMS_P1;PMS_P2;Temp;Humidity;BMP_temperature;BMP_pressure;BME280_temperature;BME280_humidity;BME280_pressure;Samples;Min_cycle;Max_cycle;Signal;HPM_P1;HPM_P2
2024/02/03 00:01:54;;;;;;;;;;;;;;;22.30;34.31;102894.13;4198565;28;19931;-61
2024/02/03 00:03:55;;;;;;;;;;;;;;;22.29;34.72;102903.09;4197930;28;20326;-62
2024/02/03 00:05:57;;;;;;;;;;;;;;;22.27;34.71;102892.47;4198320;28;19920;-62
2024/02/03 00:07:59;;;;;;;;;;;;;;;22.29;34.39;102889.72;4198440;28;20385;-62
2024/02/03 00:10:00;;;;;;;;;;;;;;;22.30;34.61;102891.44;4198362;28;19920;-62
2024/02/03 00:12:02;;;;;;;;;;;;;;;22.31;34.57;102894.03;4198208;28;20398;-62
2024/02/03 00:14:04;;;;;;;;;;;;;;;22.33;34.43;102885.91;4197111;28;19921;-62
2024/02/03 00:16:07;;;;;;;;;;;;;;;22.34;34.55;102895.69;4198332;28;19920;-61
2024/02/03 00:18:08;;;;;;;;;;;;;;;22.34;34.73;102891.19;4198026;28;19963;-61
2024/02/03 00:20:10;;;;;;;;;;;;;;;22.36;34.67;102890.25;4197955;28;19920;-61
2024/02/03 00:22:12;;;;;;;;;;;;;;;22.22;34.44;102864.16;4198020;28;19947;-61
2024/02/03 00:24:14;;;;;;;;;;;;;;;22.36;34.71;102890.25;4198116;28;19921;-62
2024/02/03 00:26:16;;;;;;;;;;;;;;;22.33;34.50;102884.13;4197983;28;19999;-62
2024/02/03 00:28:17;;;;;;;;;;;;;;;22.33;34.60;102886.78;4197878;28;20439;-61
2024/02/03 00:30:19;;;;;;;;;;;;;;;22.32;34.82;102878.81;4197993;28;19928;-61
2024/02/03 00:32:21;;;;;;;;;;;;;;;22.32;34.67;102884.16;4197379;28;20388;-61
2024/02/03 00:34:22;;;;;;;;;;;;;;;22.32;34.82;102877.00;4196721;28;19926;-62
2024/02/03 00:36:25;;;;;;;;;;;;;;;22.33;34.84;102886.78;4205247;28;19946;-61
2024/02/03 00:38:26;;;;;;;;;;;;;;;22.34;34.80;102885.81;4214574;28;19967;-62
2024/02/03 00:40:28;;;;;;;;;;;;;;;22.35;34.74;102886.72;4214436;28;20022;-61
2024/02/03 00:42:30;;;;;;;;;;;;;;;22.36;34.62;102879.53;4214542;28;19927;-61
2024/02/03 00:44:31;;;;;;;;;;;;;;;22.37;34.52;102881.25;4214653;28;19935;-61
2024/02/03 00:46:33;;;;;;;;;;;;;;;22.38;34.86;102872.28;4213999;28;19926;-60
2024/02/03 00:48:35;;;;;;;;;;;;;;;22.38;34.81;102874.97;4208887;28;20533;-61
2024/02/03 00:50:37;;;;;;;;;;;;;;;22.39;34.46;102877.59;4197537;28;20391;-62
2024/02/03 00:52:38;;;;;;;;;;;;;;;22.39;34.80;102877.59;4197799;28;20030;-61
2024/02/03 00:54:40;;;;;;;;;;;;;;;22.38;34.71;102867.81;4197639;28;19921;-62
2024/02/03 00:56:42;;;;;;;;;;;;;;;22.36;34.91;102864.31;4197392;28;19927;-62
2024/02/03 00:58:43;;;;;;;;;;;;;;;22.34;34.67;102867.06;4197647;28;20291;-63
2024/02/03 01:00:45;;;;;;;;;;;;;;;22.33;34.92;102865.34;4197572;28;19971;-62
2024/02/03 01:02:46;;;;;;;;;;;;;;;22.34;34.91;102860.84;4197421;28;19927;-62
2024/02/03 01:04:48;;;;;;;;;;;;;;;22.36;34.72;102864.31;4197772;28;19955;-62
2024/02/03 01:06:54;;;;;;;;;;;;;;;22.36;34.67;102858.97;4197742;28;19921;-62
2024/02/03 01:08:55;;;;;;;;;;;;;;;22.37;34.74;102852.66;4197527;28;20409;-62
2024/02/03 01:10:57;;;;;;;;;;;;;;;22.39;34.76;102857.97;4197606;28;19921;-62
2024/02/03 01:12:59;;;;;;;;;;;;;;;22.39;34.83;102858.81;4197517;28;20015;-62
2024/02/03 01:15:00;;;;;;;;;;;;;;;22.41;34.78;102858.75;4197482;28;19971;-62
2024/02/03 01:17:04;;;;;;;;;;;;;;;22.41;34.88;102859.63;4197153;28;19942;-62
2024/02/03 01:19:05;;;;;;;;;;;;;;;22.42;34.84;102864.03;4196403;28;20311;-62
2024/02/03 01:21:14;;;;;;;;;;;;;;;22.42;34.63;102856.00;4197462;28;19921;-62
2024/02/03 01:23:15;;;;;;;;;;;;;;;22.41;34.55;102853.41;4197472;28;19958;-62
2024/02/03 01:25:17;;;;;;;;;;;;;;;22.41;34.84;102850.72;4197473;28;19924;-62
2024/02/03 01:27:19;;;;;;;;;;;;;;;22.40;34.76;102854.34;4197566;28;19931;-62
2024/02/03 01:29:20;;;;;;;;;;;;;;;22.39;34.90;102858.81;4197375;28;20299;-62
2024/02/03 01:31:22;;;;;;;;;;;;;;;22.39;34.60;102860.63;4197163;28;19959;-62
2024/02/03 01:33:24;;;;;;;;;;;;;;;22.38;34.96;102854.41;4196216;28;20083;-62
2024/02/03 01:35:27;;;;;;;;;;;;;;;22.39;35.08;102857.97;4197164;28;19920;-61
2024/02/03 01:37:29;;;;;;;;;;;;;;;22.39;35.02;102848.09;4213338;28;20294;-62
2024/02/03 01:39:30;;;;;;;;;;;;;;;22.41;34.82;102858.75;4213880;28;19993;-62
2024/02/03 01:41:32;;;;;;;;;;;;;;;22.43;34.77;102854.16;4213742;28;20006;-61
2024/02/03 01:43:34;;;;;;;;;;;;;;;22.44;34.71;102846.06;4214127;28;19963;-62
2024/02/03 01:45:35;;;;;;;;;;;;;;;22.46;34.82;102851.34;4213451;28;19920;-62
2024/02/03 01:47:37;;;;;;;;;;;;;;;22.44;35.00;102843.38;4213978;28;20271;-62
2024/02/03 01:49:39;;;;;;;;;;;;;;;22.45;35.17;102839.72;4199381;28;20007;-62
2024/02/03 01:51:41;;;;;;;;;;;;;;;22.43;34.91;102841.63;4197073;28;19920;-62
2024/02/03 01:53:43;;;;;;;;;;;;;;;22.43;34.91;102835.38;4197056;28;19920;-61
2024/02/03 01:55:46;;;;;;;;;;;;;;;22.41;34.64;102835.47;4197234;28;19951;-62
2024/02/03 01:57:48;;;;;;;;;;;;;;;22.42;34.95;102839.00;4197138;28;19959;-62
2024/02/03 01:59:49;;;;;;;;;;;;;;;22.41;34.95;102838.16;4196666;28;20413;-62
2024/02/03 02:01:51;;;;;;;;;;;;;;;22.41;34.76;102840.84;4197061;28;19924;-62
2024/02/03 02:03:52;;;;;;;;;;;;;;;22.41;34.73;102843.53;4197023;28;19921;-62
2024/02/03 02:05:54;;;;;;;;;;;;;;;22.41;34.73;102848.88;4196894;28;19930;-62
2024/02/03 02:07:56;;;;;;;;;;;;;;;22.43;34.84;102840.75;4198665;28;19924;-62
2024/02/03 02:09:58;;;;;;;;;;;;;;;22.45;34.80;102837.03;4200401;28;19956;-61
2024/02/03 02:11:59;;;;;;;;;;;;;;;22.46;34.93;102843.28;4200177;28;19959;-62
2024/02/03 02:14:00;;;;;;;;;;;;;;;22.47;35.01;102839.66;4199640;28;19927;-62
2024/02/03 02:16:02;;;;;;;;;;;;;;;22.48;34.73;102836.03;4198797;28;19920;-62
2024/02/03 02:18:04;;;;;;;;;;;;;;;22.46;34.73;102835.25;4198879;28;19931;-61
2024/02/03 02:20:06;;;;;;;;;;;;;;;22.45;34.82;102831.69;4200056;28;20322;-62
2024/02/03 02:22:07;;;;;;;;;;;;;;;22.47;35.08;102828.94;4199916;28;19921;-62
2024/02/03 02:24:09;;;;;;;;;;;;;;;22.46;35.14;102832.56;4199929;28;19920;-62
2024/02/03 02:26:11;;;;;;;;;;;;;;;22.45;34.89;102828.16;4200179;28;19920;-62
2024/02/03 02:28:13;;;;;;;;;;;;;;;22.43;34.85;102824.66;4199454;28;19925;-62
2024/02/03 02:30:15;;;;;;;;;;;;;;;22.43;34.90;102827.34;4199979;28;19931;-62
2024/02/03 02:32:17;;;;;;;;;;;;;;;22.45;34.95;102828.16;4199722;28;19920;-62
2024/02/03 02:34:18;;;;;;;;;;;;;;;22.45;35.25;102829.00;4199774;28;19920;-62
2024/02/03 02:36:20;;;;;;;;;;;;;;;22.46;35.08;102828.06;4206239;28;19920;-62
2024/02/03 02:38:22;;;;;;;;;;;;;;;22.48;34.95;102833.38;4216507;28;19963;-62
2024/02/03 02:40:24;;;;;;;;;;;;;;;22.49;34.91;102824.34;4216347;28;19999;-62
2024/02/03 02:42:25;;;;;;;;;;;;;;;22.50;34.80;102831.44;4216171;28;19926;-62
2024/02/03 02:44:27;;;;;;;;;;;;;;;22.50;34.96;102826.06;4216405;28;20019;-62
2024/02/03 02:46:28;;;;;;;;;;;;;;;22.52;34.78;102826.88;4216603;28;19920;-62
2024/02/03 02:48:30;;;;;;;;;;;;;;;22.52;34.96;102828.66;4211512;28;19920;-62
2024/02/03 02:50:32;;;;;;;;;;;;;;;22.51;35.19;102822.44;4199251;28;19921;-61
2024/02/03 02:52:33;;;;;;;;;;;;;;;22.50;34.88;102815.34;4199481;28;19974;-62
2024/02/03 02:54:35;;;;;;;;;;;;;;;22.51;35.03;102822.44;4199643;28;20337;-62
2024/02/03 02:56:36;;;;;;;;;;;;;;;22.48;35.14;102818.13;4199656;28;19928;-62
2024/02/03 02:58:38;;;;;;;;;;;;;;;22.47;34.91;102818.22;4199067;28;19920;-61
2024/02/03 03:00:39;;;;;;;;;;;;;;;22.46;35.14;102825.38;4199518;28;19927;-62
2024/02/03 03:02:41;;;;;;;;;;;;;;;22.48;35.19;102820.81;4199490;28;19920;-62
2024/02/03 03:04:42;;;;;;;;;;;;;;;22.48;35.00;102812.75;4199395;28;19921;-62
2024/02/03 03:06:44;;;;;;;;;;;;;;;22.49;34.88;102816.28;4199467;28;19932;-62
2024/02/03 03:08:46;;;;;;;;;;;;;;;22.52;34.87;102816.16;4199244;28;20053;-62
2024/02/03 03:10:48;;;;;;;;;;;;;;;22.53;34.87;102814.31;4199452;28;20354;-62
2024/02/03 03:12:49;;;;;;;;;;;;;;;22.54;34.78;102808.91;4199002;28;19981;-62
2024/02/03 03:14:51;;;;;;;;;;;;;;;22.54;34.86;102800.84;4199241;28;19920;-62
2024/02/03 03:16:52;;;;;;;;;;;;;;;22.54;34.98;102800.84;4199414;28;19920;-62
2024/02/03 03:18:54;;;;;;;;;;;;;;;22.54;35.10;102798.16;4198807;28;19946;-62
2024/02/03 03:20:57;;;;;;;;;;;;;;;22.53;34.73;102807.16;4198048;28;19928;-62
2024/02/03 03:22:59;;;;;;;;;;;;;;;22.53;35.13;102799.13;4199228;28;19921;-62
2024/02/03 03:25:01;;;;;;;;;;;;;;;22.54;34.74;102800.84;4199166;28;19921;-62
2024/02/03 03:27:02;;;;;;;;;;;;;;;22.52;35.31;102804.53;4198682;28;20003;-61
2024/02/03 03:29:04;;;;;;;;;;;;;;;22.53;35.00;102803.59;4199160;28;20395;-62
2024/02/03 03:31:05;;;;;;;;;;;;;;;22.53;34.98;102798.22;4199003;28;20284;-62
2024/02/03 03:33:07;;;;;;;;;;;;;;;22.54;35.21;102808.00;4198964;28;19928;-62
2024/02/03 03:35:09;;;;;;;;;;;;;;;22.53;35.22;102804.47;4198804;28;20001;-62
2024/02/03 03:37:10;;;;;;;;;;;;;;;22.54;35.01;102803.53;4212361;28;19924;-62
2024/02/03 03:39:12;;;;;;;;;;;;;;;22.56;34.96;102806.97;4215607;28;19920;-62
2024/02/03 03:41:14;;;;;;;;;;;;;;;22.56;35.19;102796.25;4214948;28;19927;-61
2024/02/03 03:43:15;;;;;;;;;;;;;;;22.58;35.25;102809.59;4215494;28;19928;-61
2024/02/03 03:45:17;;;;;;;;;;;;;;;22.57;35.20;102807.88;4215463;28;19920;-61
2024/02/03 03:47:21;;;;;;;;;;;;;;;22.58;34.85;102801.56;4215261;28;19963;-61
2024/02/03 03:49:22;;;;;;;;;;;;;;;22.58;34.89;102807.78;4203073;28;19928;-62
2024/02/03 03:51:24;;;;;;;;;;;;;;;22.57;35.06;102805.19;4198482;28;20334;-61
2024/02/03 03:53:25;;;;;;;;;;;;;;;22.56;35.10;102806.13;4198660;28;19956;-61
2024/02/03 03:55:27;;;;;;;;;;;;;;;22.56;35.09;102809.66;4198132;28;20015;-61
2024/02/03 03:57:28;;;;;;;;;;;;;;;22.56;35.10;102804.31;4197311;28;19921;-61
2024/02/03 03:59:31;;;;;;;;;;;;;;;22.56;35.22;102804.31;4198304;28;19920;-61
2024/02/03 04:01:32;;;;;;;;;;;;;;;22.57;35.00;102807.88;4198511;28;19966;-61
2024/02/03 04:03:34;;;;;;;;;;;;;;;22.56;35.00;102793.56;4198512;28;20015;-62
2024/02/03 04:05:35;;;;;;;;;;;;;;;22.56;35.02;102793.56;4198517;28;19924;-61
2024/02/03 04:07:37;;;;;;;;;;;;;;;22.58;34.82;102797.03;4198342;28;19934;-62
2024/02/03 04:09:40;;;;;;;;;;;;;;;22.59;34.94;102797.91;4197994;28;19974;-61
2024/02/03 04:11:42;;;;;;;;;;;;;;;22.60;35.17;102800.53;4198293;28;19962;-62
2024/02/03 04:13:43;;;;;;;;;;;;;;;22.61;35.00;102791.53;4198403;28;19952;-61
2024/02/03 04:15:45;;;;;;;;;;;;;;;22.61;34.89;102786.16;4198100;28;20380;-61
2024/02/03 04:17:48;;;;;;;;;;;;;;;22.61;35.07;102786.16;4198198;28;19979;-62
2024/02/03 04:19:50;;;;;;;;;;;;;;;22.60;35.00;102791.59;4198136;28;19954;-61
2024/02/03 04:21:51;;;;;;;;;;;;;;;22.59;35.17;102793.41;4198233;28;19926;-61
2024/02/03 04:23:53;;;;;;;;;;;;;;;22.59;34.87;102792.53;4197658;28;19926;-62
2024/02/03 04:25:55;;;;;;;;;;;;;;;22.58;35.34;102797.03;4198188;28;19920;-60
2024/02/03 04:27:57;;;;;;;;;;;;;;;22.57;35.21;102795.31;4198120;28;19920;-61
2024/02/03 04:29:59;;;;;;;;;;;;;;;22.58;34.94;102802.41;4197431;28;19927;-62
2024/02/03 04:32:20;;;;;;;;;;;;;;;22.58;35.28;102789.00;4197958;28;19924;-61
2024/02/03 04:34:22;;;;;;;;;;;;;;;22.60;35.31;102792.47;4197995;28;19950;-61
2024/02/03 04:36:24;;;;;;;;;;;;;;;22.62;34.95;102798.59;4204858;28;19951;-61
2024/02/03 04:38:26;;;;;;;;;;;;;;;22.64;34.94;102793.19;4214149;28;20382;-61
2024/02/03 04:40:28;;;;;;;;;;;;;;;22.64;35.01;102791.34;4214391;28;19920;-61
2024/02/03 04:42:31;;;;;;;;;;;;;;;22.64;34.91;102790.50;4214515;28;19920;-61
2024/02/03 04:44:32;;;;;;;;;;;;;;;22.61;35.04;102786.16;4214698;28;19920;-61
2024/02/03 04:46:34;;;;;;;;;;;;;;;22.63;34.86;102783.41;4214502;28;19985;-61
2024/02/03 04:48:36;;;;;;;;;;;;;;;22.62;34.93;102781.66;4208817;28;20375;-61
2024/02/03 04:50:38;;;;;;;;;;;;;;;22.61;35.05;102774.56;4197520;28;19921;-61
2024/02/03 04:52:40;;;;;;;;;;;;;;;22.59;34.96;102777.31;4197441;28;19924;-61
2024/02/03 04:54:41;;;;;;;;;;;;;;;22.60;35.11;102778.19;4197084;28;19921;-61
2024/02/03 04:56:43;;;;;;;;;;;;;;;22.59;34.90;102776.44;4197521;28;19920;-61
2024/02/03 04:58:44;;;;;;;;;;;;;;;22.60;35.30;102783.53;4197701;28;19920;-61
2024/02/03 05:00:46;;;;;;;;;;;;;;;22.60;35.27;102783.53;4197702;28;19924;-61
2024/02/03 05:02:48;;;;;;;;;;;;;;;22.61;35.19;102783.50;4196320;28;19974;-62
2024/02/03 05:04:49;;;;;;;;;;;;;;;22.63;35.00;102778.03;4197471;28;19926;-61
2024/02/03 05:06:51;;;;;;;;;;;;;;;22.64;34.86;102779.78;4197534;28;19920;-61
2024/02/03 05:08:54;;;;;;;;;;;;;;;22.65;34.88;102776.16;4197306;28;19926;-62
2024/02/03 05:10:56;;;;;;;;;;;;;;;22.65;35.25;102779.69;4197627;28;20006;-61
2024/02/03 05:12:57;;;;;;;;;;;;;;;22.65;34.82;102768.09;4197182;28;19974;-62
2024/02/03 05:14:59;;;;;;;;;;;;;;;22.64;35.12;102774.41;4197503;28;19920;-61
2024/02/03 05:17:05;;;;;;;;;;;;;;;22.65;35.35;102768.09;4197473;28;19981;-61
2024/02/03 05:19:09;;;;;;;;;;;;;;;22.65;35.21;102773.47;4197530;28;19985;-61
2024/02/03 05:21:11;;;;;;;;;;;;;;;22.64;35.43;102769.03;4197357;28;19924;-62
2024/02/03 05:23:13;;;;;;;;;;;;;;;22.62;34.85;102777.16;4196974;28;19920;-61
2024/02/03 05:25:15;;;;;;;;;;;;;;;22.62;34.89;102777.16;4197351;28;19921;-61
2024/02/03 05:27:16;;;;;;;;;;;;;;;22.63;35.29;102767.31;4197428;28;19934;-61
2024/02/03 05:29:18;;;;;;;;;;;;;;;22.63;34.97;102773.53;4197293;28;20328;-62
2024/02/03 05:31:20;;;;;;;;;;;;;;;22.65;35.28;102768.09;4197399;28;19928;-61
2024/02/03 05:33:22;;;;;;;;;;;;;;;22.65;35.23;102773.47;4197301;28;19966;-61
2024/02/03 05:35:24;;;;;;;;;;;;;;;22.67;34.99;102773.38;4197534;28;20422;-61
2024/02/03 05:37:25;;;;;;;;;;;;;;;22.68;35.16;102784.00;4212329;28;19920;-62
2024/02/03 05:39:27;;;;;;;;;;;;;;;22.68;34.95;102775.09;4214061;28;19958;-61
2024/02/03 05:41:29;;;;;;;;;;;;;;;22.69;35.32;102775.00;4213741;28;19920;-61
2024/02/03 05:43:30;;;;;;;;;;;;;;;22.68;34.99;102775.97;4216477;28;19920;-61
2024/02/03 05:45:32;;;;;;;;;;;;;;;22.68;34.89;102775.97;4217408;28;19920;-61
2024/02/03 05:47:34;;;;;;;;;;;;;;;22.68;35.34;102769.75;4217188;28;19920;-62
2024/02/03 05:49:35;;;;;;;;;;;;;;;22.65;35.23;102774.31;4203143;28;19920;-62
2024/02/03 05:51:37;;;;;;;;;;;;;;;22.65;35.43;102773.47;4200170;28;19961;-61
2024/02/03 05:53:38;;;;;;;;;;;;;;;22.65;34.94;102768.09;4200158;28;19927;-62
2024/02/03 05:55:40;;;;;;;;;;;;;;;22.64;35.11;102766.34;4200542;28;19927;-62
2024/02/03 05:57:52;;;;;;;;;;;;;;;22.66;35.28;102777.84;4200412;28;20379;-61
2024/02/03 05:59:53;;;;;;;;;;;;;;;22.67;34.93;102768.84;4200299;28;19920;-61
2024/02/03 06:01:55;;;;;;;;;;;;;;;22.68;35.02;102767.91;4200407;28;19920;-61
2024/02/03 06:03:59;;;;;;;;;;;;;;;22.69;35.04;102766.97;4200299;28;19924;-60
2024/02/03 06:06:01;;;;;;;;;;;;;;;22.71;35.00;102762.41;4199821;28;20299;-62
2024/02/03 06:08:06;;;;;;;;;;;;;;;22.71;35.35;102759.72;4200166;28;19932;-61
2024/02/03 06:10:07;;;;;;;;;;;;;;;22.73;35.29;102756.94;4200264;28;19939;-61
2024/02/03 06:12:09;;;;;;;;;;;;;;;22.72;35.00;102753.38;4198941;28;19924;-61
2024/02/03 06:14:11;;;;;;;;;;;;;;;22.73;34.99;102756.94;4200051;28;19920;-61
2024/02/03 06:16:12;;;;;;;;;;;;;;;22.72;35.08;102755.19;4200052;28;19920;-62
2024/02/03 06:18:14;;;;;;;;;;;;;;;22.71;35.42;102751.66;4199996;28;19920;-62
2024/02/03 06:20:15;;;;;;;;;;;;;;;22.69;35.34;102753.56;4199520;28;19927;-62
2024/02/03 06:22:17;;;;;;;;;;;;;;;22.69;34.92;102756.25;4200172;28;19924;-61
2024/02/03 06:24:19;;;;;;;;;;;;;;;22.69;35.21;102763.44;4200095;28;20362;-61
2024/02/03 06:26:21;;;;;;;;;;;;;;;22.68;35.14;102754.50;4199778;28;19924;-61
2024/02/03 06:28:24;;;;;;;;;;;;;;;22.69;35.45;102756.25;4199983;28;19920;-62
2024/02/03 06:30:27;;;;;;;;;;;;;;;22.70;35.35;102759.78;4199766;28;19920;-61
2024/02/03 06:32:28;;;;;;;;;;;;;;;22.71;35.37;102754.34;4199921;28;19920;-61
2024/02/03 06:34:30;;;;;;;;;;;;;;;22.72;35.00;102752.50;4199686;28;19944;-62
2024/02/03 06:36:32;;;;;;;;;;;;;;;22.72;35.20;102761.41;4207958;28;20332;-61
2024/02/03 06:38:33;;;;;;;;;;;;;;;22.74;35.20;102756.84;4216675;28;19923;-61
2024/02/03 06:40:34;;;;;;;;;;;;;;;22.74;35.08;102754.16;4216535;28;19920;-62
2024/02/03 06:42:36;;;;;;;;;;;;;;;22.73;35.21;102762.31;4216519;28;20405;-61
2024/02/03 06:44:38;;;;;;;;;;;;;;;22.73;35.00;102757.78;4216321;28;20014;-60
2024/02/03 06:46:39;;;;;;;;;;;;;;;22.73;35.01;102762.31;4216598;28;20365;-61
2024/02/03 06:48:41;;;;;;;;;;;;;;;22.71;35.13;102758.81;4209847;28;19921;-61
2024/02/03 06:50:42;;;;;;;;;;;;;;;22.69;35.23;102766.97;4199184;28;19974;-61
2024/02/03 06:52:44;;;;;;;;;;;;;;;22.70;35.16;102765.13;4199239;28;19920;-61
2024/02/03 06:54:46;;;;;;;;;;;;;;;22.70;35.15;102770.50;4199298;28;20333;-61
2024/02/03 06:56:47;;;;;;;;;;;;;;;22.71;35.45;102761.50;4199361;28;19969;-62
2024/02/03 06:58:49;;;;;;;;;;;;;;;22.71;35.29;102765.06;4198375;28;20425;-61
2024/02/03 07:00:50;;;;;;;;;;;;;;;22.71;35.52;102762.41;4199539;28;19920;-61
2024/02/03 07:02:52;;;;;;;;;;;;;;;22.73;35.39;102763.16;4199199;28;19920;-61
2024/02/03 07:04:54;;;;;;;;;;;;;;;22.75;35.25;102765.78;4199153;28;19942;-61
2024/02/03 07:06:55;;;;;;;;;;;;;;;22.74;35.15;102770.25;4199521;28;19920;-61
2024/02/03 07:08:57;;;;;;;;;;;;;;;22.75;35.52;102773.81;4199159;28;19920;-61
2024/02/03 07:10:58;;;;;;;;;;;;;;;22.75;35.08;102773.81;4199385;28;19927;-62
2024/02/03 07:13:00;;;;;;;;;;;;;;;22.75;35.13;102768.47;4198953;28;19946;-61
2024/02/03 07:15:02;;;;;;;;;;;;;;;22.74;35.19;102780.13;4199311;28;19921;-62
2024/02/03 07:17:03;;;;;;;;;;;;;;;22.74;35.22;102782.81;4199078;28;19927;-62
2024/02/03 07:19:05;;;;;;;;;;;;;;;22.72;35.28;102785.56;4198944;28;20015;-62
2024/02/03 07:21:07;;;;;;;;;;;;;;;22.72;35.43;102790.06;4199321;28;19974;-60
2024/02/03 07:23:08;;;;;;;;;;;;;;;22.70;35.25;102792.84;4199224;28;20030;-61
2024/02/03 07:25:12;;;;;;;;;;;;;;;22.71;35.33;102791.91;4199059;28;19920;-62
2024/02/03 07:27:13;;;;;;;;;;;;;;;22.73;35.12;102789.97;4198875;28;19921;-61
2024/02/03 07:29:15;;;;;;;;;;;;;;;22.73;35.29;102792.66;4198854;28;19966;-61
2024/02/03 07:31:26;;;;;;;;;;;;;;;22.75;35.45;102795.28;4198905;28;19930;-62
2024/02/03 07:33:28;;;;;;;;;;;;;;;22.75;35.31;102789.91;4198482;28;19924;-62
2024/02/03 07:35:30;;;;;;;;;;;;;;;22.74;35.43;102781.00;4198989;28;19920;-62
2024/02/03 07:37:32;;;;;;;;;;;;;;;22.75;35.45;102788.09;4215336;28;20466;-62
2024/02/03 07:39:33;;;;;;;;;;;;;;;22.75;35.34;102785.41;4215515;28;19927;-61
2024/02/03 07:41:35;;;;;;;;;;;;;;;22.75;35.39;102790.78;4215594;28;19920;-61
2024/02/03 07:43:36;;;;;;;;;;;;;;;22.76;35.39;102788.94;4215558;28;20011;-62
2024/02/03 07:45:38;;;;;;;;;;;;;;;22.76;35.32;102794.31;4215562;28;19923;-62
2024/02/03 07:47:39;;;;;;;;;;;;;;;22.74;35.15;102799.75;4215267;28;19928;-62
2024/02/03 07:49:41;;;;;;;;;;;;;;;22.73;35.40;102792.66;4200292;28;19920;-62
2024/02/03 07:51:42;;;;;;;;;;;;;;;22.73;35.19;102799.84;4198730;28;20118;-62
2024/02/03 07:53:44;;;;;;;;;;;;;;;22.73;35.26;102799.84;4198674;28;20007;-60
2024/02/03 07:55:46;;;;;;;;;;;;;;;22.74;35.20;102801.59;4198713;28;19962;-61
2024/02/03 07:57:47;;;;;;;;;;;;;;;22.74;35.13;102798.91;4198494;28;19920;-61
2024/02/03 07:59:51;;;;;;;;;;;;;;;22.75;35.23;102796.13;4198865;28;19920;-61
2024/02/03 08:01:53;;;;;;;;;;;;;;;22.77;35.06;102804.09;4197953;28;19931;-61
2024/02/03 08:03:55;;;;;;;;;;;;;;;22.78;35.32;102800.47;4198407;28;19943;-61
2024/02/03 08:05:59;;;;;;;;;;;;;;;22.78;35.54;102806.72;4197535;28;20343;-61
2024/02/03 08:08:01;;;;;;;;;;;;;;;22.78;35.36;102805.81;4198472;28;19928;-61
2024/02/03 08:10:02;;;;;;;;;;;;;;;22.78;35.43;102806.72;4198468;28;20302;-61
2024/02/03 08:12:04;;;;;;;;;;;;;;;22.78;35.32;102811.19;4198441;28;19920;-61
2024/02/03 08:14:06;;;;;;;;;;;;;;;22.77;35.14;102813.03;4198033;28;19920;-61
2024/02/03 08:16:08;;;;;;;;;;;;;;;22.76;35.21;102813.97;4197933;28;20436;-61
2024/02/03 08:18:09;;;;;;;;;;;;;;;22.75;35.50;102812.22;4198238;28;19974;-61
2024/02/03 08:20:12;;;;;;;;;;;;;;;22.76;35.25;102807.72;4198053;28;19979;-61
2024/02/03 08:22:13;;;;;;;;;;;;;;;22.57;35.12;102776.53;4198125;28;19920;-61
2024/02/03 08:24:15;;;;;;;;;;;;;;;22.39;35.27;102743.53;4196946;28;19928;-61
2024/02/03 08:26:17;;;;;;;;;;;;;;;22.75;35.25;102808.69;4196783;28;19927;-61
2024/02/03 08:28:19;;;;;;;;;;;;;;;22.77;35.38;102796.94;4197985;28;19929;-61
2024/02/03 08:30:20;;;;;;;;;;;;;;;22.76;35.06;102805.03;4198163;28;20387;-61
2024/02/03 08:32:23;;;;;;;;;;;;;;;22.75;35.12;102806.88;4197862;28;19926;-61
2024/02/03 08:34:26;;;;;;;;;;;;;;;22.76;35.31;102807.72;4198041;28;19944;-61
2024/02/03 08:36:28;;;;;;;;;;;;;;;22.75;35.12;102812.22;4205489;28;19920;-61
2024/02/03 08:38:29;;;;;;;;;;;;;;;22.73;35.55;102805.22;4214721;28;19920;-61
2024/02/03 08:40:31;;;;;;;;;;;;;;;22.73;35.20;102810.59;4216564;28;20003;-61
2024/02/03 08:42:32;;;;;;;;;;;;;;;22.71;35.29;102820.53;4223853;28;19963;-61
2024/02/03 08:44:34;;;;;;;;;;;;;;;22.68;35.27;102801.94;4215420;28;19920;-61
2024/02/03 08:46:35;;;;;;;;;;;;;;;22.65;35.16;102819.06;4214346;28;20330;-61
2024/02/03 08:48:37;;;;;;;;;;;;;;;22.65;35.32;102808.31;4208800;28;20333;-61
2024/02/03 08:50:38;;;;;;;;;;;;;;;22.63;35.39;102818.25;4197716;28;19943;-60
2024/02/03 08:52:40;;;;;;;;;;;;;;;22.62;35.44;102817.38;4197614;28;19924;-60
2024/02/03 08:54:41;;;;;;;;;;;;;;;22.61;35.32;102817.47;4197816;28;19970;-61
2024/02/03 08:56:43;;;;;;;;;;;;;;;22.61;35.64;102809.41;4197685;28;20299;-61
2024/02/03 08:58:45;;;;;;;;;;;;;;;22.61;35.43;102812.09;4197701;28;19924;-61
2024/02/03 09:00:47;;;;;;;;;;;;;;;22.60;35.87;102821.97;4197217;28;20026;-61
2024/02/03 09:02:48;;;;;;;;;;;;;;;22.61;35.76;102809.41;4197682;28;20363;-61
2024/02/03 09:04:50;;;;;;;;;;;;;;;22.61;35.57;102814.78;4197566;28;20007;-61
2024/02/03 09:06:51;;;;;;;;;;;;;;;22.60;35.70;102813.94;4197713;28;19942;-61
2024/02/03 09:08:53;;;;;;;;;;;;;;;22.59;35.68;102811.31;4197654;28;19944;-61
2024/02/03 09:10:56;;;;;;;;;;;;;;;22.58;35.86;102820.31;4197654;28;20023;-60
2024/02/03 09:12:57;;;;;;;;;;;;;;;22.57;35.74;102813.22;4197614;28;19974;-61
2024/02/03 09:14:59;;;;;;;;;;;;;;;22.55;35.64;102815.13;4197059;28;19930;-61
2024/02/03 09:17:00;;;;;;;;;;;;;;;22.55;35.71;102810.59;4197381;28;20003;-61
2024/02/03 09:19:02;;;;;;;;;;;;;;;22.57;35.75;102813.22;4197574;28;19966;-61
2024/02/03 09:21:08;;;;;;;;;;;;;;;22.58;36.08;102812.28;4197513;28;20287;-61
2024/02/03 09:23:09;;;;;;;;;;;;;;;22.59;35.95;102816.66;4197547;28;20010;-61
2024/02/03 09:25:11;;;;;;;;;;;;;;;22.60;35.99;102821.09;4197479;28;20377;-61
2024/02/03 09:27:14;;;;;;;;;;;;;;;22.62;36.00;102821.88;4197584;28;19973;-61
2024/02/03 09:29:16;;;;;;;;;;;;;;;22.62;35.80;102829.94;4195893;28;20738;-60
2024/02/03 09:31:19;;;;;;;;;;;;;;;22.63;35.87;102829.00;4197446;28;19962;-61
2024/02/03 09:33:20;;;;;;;;;;;;;;;22.63;35.75;102826.31;4197736;28;19924;-62
2024/02/03 09:35:22;;;;;;;;;;;;;;;22.64;35.77;102826.22;4197333;28;19981;-61
2024/02/03 09:37:24;;;;;;;;;;;;;;;22.65;36.00;102835.16;4212639;28;19973;-61
2024/02/03 09:39:28;;;;;;;;;;;;;;;22.63;35.92;102837.03;4214143;28;19930;-61
2024/02/03 09:41:31;;;;;;;;;;;;;;;22.63;36.00;102842.41;4213856;28;19927;-62
2024/02/03 09:43:33;;;;;;;;;;;;;;;22.62;35.86;102844.19;4213425;28;19920;-61
2024/02/03 09:45:35;;;;;;;;;;;;;;;22.63;35.72;102843.25;4214074;28;19920;-62
2024/02/03 09:47:36;;;;;;;;;;;;;;;22.65;35.78;102843.19;4214253;28;20388;-62
2024/02/03 09:49:38;;;;;;;;;;;;;;;22.66;35.71;102844.91;4199462;28;19974;-62
2024/02/03 09:51:40;;;;;;;;;;;;;;;22.68;35.68;102844.84;4197514;28;20367;-61
2024/02/03 09:53:43;;;;;;;;;;;;;;;22.69;35.84;102844.75;4197195;28;19927;-62
2024/02/03 09:55:44;;;;;;;;;;;;;;;22.71;35.68;102845.53;4197169;28;19952;-62
2024/02/03 09:57:47;;;;;;;;;;;;;;;22.73;35.82;102854.34;4196949;28;19921;-61
2024/02/03 09:59:49;;;;;;;;;;;;;;;22.74;35.59;102857.94;4197326;28;19989;-62
2024/02/03 10:01:51;;;;;;;;;;;;;;;22.74;35.58;102858.78;4197129;28;19920;-61
2024/02/03 10:03:58;;;;;;;;;;;;;;;22.75;35.63;102855.16;4197027;28;20015;-62
2024/02/03 10:06:01;;;;;;;;;;;;;;;22.75;35.91;102854.28;4197231;28;19927;-61
2024/02/03 10:08:05;;;;;;;;;;;;;;;22.75;35.88;102863.19;4196822;28;19922;-62
2024/02/03 10:10:08;;;;;;;;;;;;;;;22.73;35.61;102865.09;4196339;28;19920;-62
2024/02/03 10:12:16;;;;;;;;;;;;;;;22.74;36.12;102860.59;4190231;28;19925;-61
2024/02/03 10:14:21;;;;;;;;;;;;;;;22.74;36.12;102863.28;4186349;28;19928;-59
2024/02/03 10:16:23;;;;;;;;;;;;;;;22.73;36.77;102865.09;4187149;28;19921;-59
2024/02/03 10:18:24;;;;;;;;;;;;;;;22.70;37.70;102867.06;4192759;28;20360;-60
2024/02/03 10:20:27;;;;;;;;;;;;;;;22.66;37.67;102866.34;4196073;28;19924;-58
2024/02/03 10:22:29;;;;;;;;;;;;;;;22.68;37.70;102872.53;4196561;28;19920;-62
2024/02/03 10:24:30;;;;;;;;;;;;;;;22.69;37.27;102866.22;4196813;28;20393;-61
2024/02/03 10:26:32;;;;;;;;;;;;;;;22.69;37.68;102868.91;4196526;28;19928;-60